createdAt,value
2016-08-13T00:00:34.803Z,0
2016-08-13T00:01:34.125Z,0
2016-08-13T00:02:34.131Z,0
2016-08-13T00:03:34.135Z,0
2016-08-13T00:04:34.127Z,0
2016-08-13T00:05:34.134Z,0
2016-08-13T00:06:34.137Z,0
2016-08-13T00:07:34.157Z,0
2016-08-13T00:08:34.159Z,0
2016-08-13T00:09:34.180Z,0
2016-08-13T00:10:34.168Z,0
2016-08-13T00:11:34.184Z,0
2016-08-13T00:12:34.189Z,0
2016-08-13T00:13:34.199Z,0
2016-08-13T00:14:34.192Z,0
2016-08-13T00:15:34.234Z,0
2016-08-13T00:16:34.236Z,0
2016-08-13T00:17:34.207Z,0
2016-08-13T00:18:34.234Z,0
2016-08-13T00:19:34.238Z,0
2016-08-13T00:20:34.240Z,0
2016-08-13T00:21:34.231Z,0
2016-08-13T00:22:34.279Z,0
2016-08-13T00:23:34.280Z,0
2016-08-13T00:24:34.251Z,0
2016-08-13T00:25:34.308Z,0
2016-08-13T00:26:34.303Z,0
2016-08-13T00:27:34.302Z,0
2016-08-13T00:28:35.022Z,0
2016-08-13T00:29:34.350Z,0
2016-08-13T00:30:34.323Z,0
2016-08-13T00:31:34.321Z,0
2016-08-13T00:32:34.318Z,0
2016-08-13T00:33:34.314Z,0
2016-08-13T00:34:34.352Z,0
2016-08-13T00:35:34.341Z,0
2016-08-13T00:36:34.381Z,0
2016-08-13T00:37:34.396Z,0
2016-08-13T00:38:34.402Z,0
2016-08-13T00:39:34.420Z,0
2016-08-13T00:40:34.395Z,0
2016-08-13T00:41:34.435Z,0
2016-08-13T00:42:34.401Z,0
2016-08-13T00:43:34.382Z,0
2016-08-13T00:44:35.151Z,0
2016-08-13T00:45:34.439Z,0
2016-08-13T00:46:34.454Z,0
2016-08-13T00:47:34.470Z,0
2016-08-13T00:48:34.461Z,0
2016-08-13T00:49:34.437Z,0
2016-08-13T00:50:34.469Z,0
2016-08-13T00:51:34.491Z,0
2016-08-13T00:52:34.459Z,0
2016-08-13T00:53:34.516Z,0
2016-08-13T00:54:34.522Z,0
2016-08-13T00:55:34.535Z,0
2016-08-13T00:56:34.481Z,0
2016-08-13T00:57:34.518Z,0
2016-08-13T00:58:34.533Z,0
2016-08-13T00:59:34.541Z,0
2016-08-13T01:00:34.559Z,0
2016-08-13T01:01:34.565Z,0
2016-08-13T01:02:34.539Z,0
2016-08-13T01:03:34.558Z,0
2016-08-13T01:04:34.561Z,0
2016-08-13T01:05:34.594Z,0
2016-08-13T01:06:34.586Z,0
2016-08-13T01:07:34.621Z,0
2016-08-13T01:08:34.603Z,0
2016-08-13T01:09:34.612Z,0
2016-08-13T01:10:34.617Z,0
2016-08-13T01:11:34.658Z,0
2016-08-13T01:12:35.307Z,0
2016-08-13T01:13:34.655Z,0
2016-08-13T01:14:34.658Z,0
2016-08-13T01:15:34.652Z,0
2016-08-13T01:16:34.697Z,0
2016-08-13T01:17:34.677Z,0
2016-08-13T01:18:34.673Z,0
2016-08-13T01:19:34.702Z,0
2016-08-13T01:20:35.404Z,0
2016-08-13T01:21:34.712Z,0
2016-08-13T01:22:34.692Z,0
2016-08-13T01:23:34.743Z,0
2016-08-13T01:24:34.730Z,0
2016-08-13T01:25:34.730Z,0
2016-08-13T01:26:34.741Z,0
2016-08-13T01:27:34.754Z,0
2016-08-13T01:28:34.799Z,0
2016-08-13T01:29:35.498Z,0
2016-08-13T01:30:34.772Z,0
2016-08-13T01:31:34.753Z,0
2016-08-13T01:32:34.793Z,0
2016-08-13T01:33:34.782Z,0
2016-08-13T01:34:34.807Z,0
2016-08-13T01:35:34.811Z,0
2016-08-13T01:36:34.807Z,0
2016-08-13T01:37:34.838Z,0
2016-08-13T01:38:34.832Z,0
2016-08-13T01:39:34.827Z,0
2016-08-13T01:40:34.843Z,0
2016-08-13T01:41:34.866Z,0
2016-08-13T01:42:34.872Z,0
2016-08-13T01:43:34.875Z,0
2016-08-13T01:44:34.863Z,0
2016-08-13T01:45:35.580Z,0
2016-08-13T01:46:34.920Z,0
2016-08-13T01:47:34.913Z,0
2016-08-13T01:48:34.917Z,0
2016-08-13T01:49:34.923Z,0
2016-08-13T01:50:34.963Z,0
2016-08-13T01:51:34.938Z,0
2016-08-13T01:52:34.960Z,0
2016-08-13T01:53:34.953Z,0
2016-08-13T01:54:34.970Z,0
2016-08-13T01:55:34.937Z,0
2016-08-13T01:56:34.983Z,0
2016-08-13T01:57:34.971Z,0
2016-08-13T01:58:34.994Z,0
2016-08-13T01:59:35.009Z,0
2016-08-13T02:00:35.005Z,0
2016-08-13T02:01:34.989Z,0
2016-08-13T02:02:35.014Z,0
2016-08-13T02:03:35.055Z,0
2016-08-13T02:04:35.015Z,0
2016-08-13T02:05:35.052Z,0
2016-08-13T02:06:35.037Z,0
2016-08-13T02:07:35.054Z,0
2016-08-13T02:08:35.060Z,0
2016-08-13T02:09:35.111Z,0
2016-08-13T02:10:35.082Z,0
2016-08-13T02:11:35.070Z,0
2016-08-13T02:12:35.096Z,0
2016-08-13T02:13:35.100Z,0
2016-08-13T02:14:35.107Z,0
2016-08-13T02:15:35.158Z,0
2016-08-13T02:16:35.154Z,0
2016-08-13T02:17:35.155Z,0
2016-08-13T02:18:35.142Z,0
2016-08-13T02:19:35.153Z,0
2016-08-13T02:20:35.183Z,0
2016-08-13T02:21:35.163Z,0
2016-08-13T02:22:35.172Z,0
2016-08-13T02:23:35.203Z,0
2016-08-13T02:24:35.171Z,0
2016-08-13T02:25:35.206Z,0
2016-08-13T02:26:35.233Z,0
2016-08-13T02:27:35.226Z,0
2016-08-13T02:28:35.386Z,0
2016-08-13T02:29:35.238Z,0
2016-08-13T02:30:35.224Z,0
2016-08-13T02:31:35.248Z,0
2016-08-13T02:32:35.223Z,0
2016-08-13T02:33:35.272Z,0
2016-08-13T02:34:35.285Z,0
2016-08-13T02:35:35.283Z,0
2016-08-13T02:36:35.291Z,0
2016-08-13T02:37:35.298Z,0
2016-08-13T02:38:35.296Z,0
2016-08-13T02:39:35.297Z,0
2016-08-13T02:40:35.295Z,0
2016-08-13T02:41:36.032Z,0
2016-08-13T02:42:35.322Z,0
2016-08-13T02:43:35.319Z,0
2016-08-13T02:44:35.338Z,0
2016-08-13T02:45:35.359Z,0
2016-08-13T02:46:35.341Z,0
2016-08-13T02:47:35.366Z,0
2016-08-13T02:48:35.378Z,0
2016-08-13T02:49:35.386Z,0
2016-08-13T02:50:35.378Z,0
2016-08-13T02:51:35.384Z,0
2016-08-13T02:52:36.091Z,0
2016-08-13T02:53:35.413Z,0
2016-08-13T02:54:35.425Z,0
2016-08-13T02:55:35.440Z,0
2016-08-13T02:56:35.432Z,0
2016-08-13T02:57:35.444Z,0
2016-08-13T02:58:35.430Z,0
2016-08-13T02:59:35.435Z,0
2016-08-13T03:00:35.470Z,0
2016-08-13T03:01:35.462Z,0
2016-08-13T03:02:35.471Z,0
2016-08-13T03:03:35.496Z,0
2016-08-13T03:04:35.495Z,0
2016-08-13T03:05:35.463Z,0
2016-08-13T03:06:35.494Z,0
2016-08-13T03:07:35.531Z,0
2016-08-13T03:08:35.511Z,0
2016-08-13T03:09:35.522Z,0
2016-08-13T03:10:35.530Z,0
2016-08-13T03:11:35.557Z,0
2016-08-13T03:12:35.538Z,0
2016-08-13T03:13:35.586Z,0
2016-08-13T03:14:35.568Z,0
2016-08-13T03:15:35.604Z,0
2016-08-13T03:16:35.591Z,0
2016-08-13T03:17:35.597Z,0
2016-08-13T03:18:35.618Z,0
2016-08-13T03:19:36.285Z,0
2016-08-13T03:20:35.619Z,0
2016-08-13T03:21:35.611Z,0
2016-08-13T03:22:35.618Z,0
2016-08-13T03:23:35.657Z,0
2016-08-13T03:24:35.633Z,0
2016-08-13T03:25:35.643Z,0
2016-08-13T03:26:35.662Z,0
2016-08-13T03:27:35.701Z,0
2016-08-13T03:28:35.713Z,0
2016-08-13T03:29:35.716Z,0
2016-08-13T03:30:35.693Z,0
2016-08-13T03:31:35.727Z,0
2016-08-13T03:32:35.671Z,0
2016-08-13T03:33:35.724Z,0
2016-08-13T03:34:35.720Z,0
2016-08-13T03:35:36.423Z,0
2016-08-13T03:36:35.729Z,0
2016-08-13T03:37:35.751Z,0
2016-08-13T03:38:35.763Z,0
2016-08-13T03:39:35.771Z,0
2016-08-13T03:40:35.768Z,0
2016-08-13T03:41:35.767Z,0
2016-08-13T03:42:35.766Z,0
2016-08-13T03:43:35.792Z,0
2016-08-13T03:44:35.810Z,0
2016-08-13T03:45:35.820Z,0
2016-08-13T03:46:35.828Z,0
2016-08-13T03:47:35.834Z,0
2016-08-13T03:48:35.822Z,0
2016-08-13T03:49:35.839Z,0
2016-08-13T03:50:35.825Z,0
2016-08-13T03:51:35.847Z,0
2016-08-13T03:52:35.873Z,0
2016-08-13T03:53:35.879Z,0
2016-08-13T03:54:35.877Z,0
2016-08-13T03:55:35.885Z,0
2016-08-13T03:56:35.899Z,0
2016-08-13T03:57:35.885Z,0
2016-08-13T03:58:35.913Z,0
2016-08-13T03:59:35.923Z,0
2016-08-13T04:00:35.934Z,0
2016-08-13T04:01:35.896Z,0
2016-08-13T04:02:35.935Z,0
2016-08-13T04:03:35.943Z,0
2016-08-13T04:04:35.948Z,0
2016-08-13T04:05:35.978Z,0
2016-08-13T04:06:35.959Z,0
2016-08-13T04:07:35.961Z,0
2016-08-13T04:08:35.992Z,0
2016-08-13T04:09:35.986Z,0
2016-08-13T04:10:35.965Z,0
2016-08-13T04:11:36.032Z,0
2016-08-13T04:12:36.017Z,0
2016-08-13T04:13:36.002Z,0
2016-08-13T04:14:36.021Z,0
2016-08-13T04:15:36.056Z,0
2016-08-13T04:16:36.022Z,0
2016-08-13T04:17:36.037Z,0
2016-08-13T04:18:36.050Z,0
2016-08-13T04:19:36.066Z,0
2016-08-13T04:20:36.076Z,0
2016-08-13T04:21:36.133Z,0
2016-08-13T04:22:36.091Z,0
2016-08-13T04:23:36.062Z,0
2016-08-13T04:24:36.103Z,0
2016-08-13T04:25:36.099Z,0
2016-08-13T04:26:36.113Z,0
2016-08-13T04:27:36.148Z,0
2016-08-13T04:28:36.187Z,0
2016-08-13T04:29:36.181Z,0
2016-08-13T04:30:36.148Z,0
2016-08-13T04:31:36.147Z,0
2016-08-13T04:32:36.163Z,0
2016-08-13T04:33:36.134Z,0
2016-08-13T04:34:36.181Z,0
2016-08-13T04:35:36.194Z,0
2016-08-13T04:36:36.172Z,0
2016-08-13T04:37:36.177Z,0
2016-08-13T04:38:36.214Z,0
2016-08-13T04:39:36.208Z,0
2016-08-13T04:40:36.223Z,0
2016-08-13T04:41:36.230Z,0
2016-08-13T04:42:36.236Z,5
2016-08-13T04:43:36.267Z,5
2016-08-13T04:44:36.225Z,5
2016-08-13T04:45:36.254Z,5
2016-08-13T04:46:36.287Z,5
2016-08-13T04:47:36.288Z,5
2016-08-13T04:48:36.259Z,5
2016-08-13T04:49:36.325Z,5
2016-08-13T04:50:36.327Z,5
2016-08-13T04:51:36.317Z,5
2016-08-13T04:52:36.339Z,5
2016-08-13T04:53:36.315Z,5
2016-08-13T04:54:36.326Z,5
2016-08-13T04:55:36.307Z,5
2016-08-13T04:56:36.345Z,5
2016-08-13T04:57:36.375Z,5
2016-08-13T04:58:36.374Z,5
2016-08-13T04:59:36.374Z,5
2016-08-13T05:00:36.363Z,5
2016-08-13T05:01:36.376Z,10
2016-08-13T05:02:36.413Z,10
2016-08-13T05:03:36.373Z,5
2016-08-13T05:04:36.422Z,5
2016-08-13T05:05:36.439Z,5
2016-08-13T05:06:36.426Z,5
2016-08-13T05:07:36.450Z,5
2016-08-13T05:08:36.441Z,5
2016-08-13T05:09:37.160Z,10
2016-08-13T05:10:36.464Z,10
2016-08-13T05:11:36.479Z,5
2016-08-13T05:12:36.469Z,5
2016-08-13T05:13:36.470Z,5
2016-08-13T05:14:36.496Z,5
2016-08-13T05:15:36.498Z,5
2016-08-13T05:16:36.540Z,5
2016-08-13T05:17:36.542Z,5
2016-08-13T05:18:36.506Z,5
2016-08-13T05:19:36.501Z,5
2016-08-13T05:20:36.556Z,5
2016-08-13T05:21:36.535Z,5
2016-08-13T05:22:37.239Z,5
2016-08-13T05:23:36.562Z,5
2016-08-13T05:24:36.575Z,5
2016-08-13T05:25:36.554Z,5
2016-08-13T05:26:36.569Z,5
2016-08-13T05:27:36.552Z,5
2016-08-13T05:28:36.565Z,5
2016-08-13T05:29:36.749Z,5
2016-08-13T05:30:36.604Z,5
2016-08-13T05:31:36.597Z,5
2016-08-13T05:32:36.640Z,5
2016-08-13T05:33:36.614Z,5
2016-08-13T05:34:36.656Z,5
2016-08-13T05:35:36.636Z,5
2016-08-13T05:36:36.631Z,5
2016-08-13T05:37:36.674Z,5
2016-08-13T05:38:36.634Z,5
2016-08-13T05:39:36.679Z,5
2016-08-13T05:40:36.684Z,5
2016-08-13T05:41:36.681Z,5
2016-08-13T05:42:36.713Z,5
2016-08-13T05:43:37.401Z,5
2016-08-13T05:44:36.714Z,5
2016-08-13T05:45:36.726Z,5
2016-08-13T05:46:36.714Z,5
2016-08-13T05:47:36.768Z,5
2016-08-13T05:48:36.723Z,5
2016-08-13T05:49:36.716Z,5
2016-08-13T05:50:36.742Z,5
2016-08-13T05:51:36.764Z,5
2016-08-13T05:52:36.779Z,5
2016-08-13T05:53:36.780Z,5
2016-08-13T05:54:36.774Z,5
2016-08-13T05:55:36.805Z,5
2016-08-13T05:56:36.815Z,5
2016-08-13T05:57:36.810Z,5
2016-08-13T05:58:36.820Z,5
2016-08-13T05:59:36.818Z,5
2016-08-13T06:00:36.809Z,5
2016-08-13T06:01:36.831Z,5
2016-08-13T06:02:36.844Z,5
2016-08-13T06:03:36.871Z,5
2016-08-13T06:04:36.865Z,5
2016-08-13T06:05:36.833Z,5
2016-08-13T06:06:36.882Z,5
2016-08-13T06:07:36.878Z,5
2016-08-13T06:08:36.889Z,5
2016-08-13T06:09:36.865Z,5
2016-08-13T06:10:36.881Z,5
2016-08-13T06:11:36.938Z,5
2016-08-13T06:12:36.933Z,5
2016-08-13T06:13:36.924Z,5
2016-08-13T06:14:36.932Z,5
2016-08-13T06:15:36.932Z,5
2016-08-13T06:16:36.953Z,5
2016-08-13T06:17:36.978Z,5
2016-08-13T06:18:36.958Z,5
2016-08-13T06:19:36.991Z,5
2016-08-13T06:20:37.007Z,5
2016-08-13T06:21:36.992Z,5
2016-08-13T06:22:37.013Z,5
2016-08-13T06:23:37.005Z,5
2016-08-13T06:24:37.716Z,5
2016-08-13T06:25:37.021Z,5
2016-08-13T06:26:37.039Z,5
2016-08-13T06:27:37.023Z,5
2016-08-13T06:28:37.026Z,5
2016-08-13T06:29:37.083Z,5
2016-08-13T06:30:37.043Z,5
2016-08-13T06:31:37.068Z,5
2016-08-13T06:32:37.066Z,5
2016-08-13T06:33:37.074Z,5
2016-08-13T06:34:37.065Z,5
2016-08-13T06:35:37.098Z,5
2016-08-13T06:36:37.779Z,5
2016-08-13T06:37:37.116Z,5
2016-08-13T06:38:37.131Z,5
2016-08-13T06:39:37.107Z,5
2016-08-13T06:40:37.123Z,5
2016-08-13T06:41:37.114Z,5
2016-08-13T06:42:37.147Z,5
2016-08-13T06:43:37.173Z,5
2016-08-13T06:44:37.156Z,5
2016-08-13T06:45:37.268Z,5
2016-08-13T06:46:37.189Z,5
2016-08-13T06:47:37.151Z,5
2016-08-13T06:48:37.171Z,5
2016-08-13T06:49:37.195Z,5
2016-08-13T06:50:37.883Z,5
2016-08-13T06:51:37.242Z,5
2016-08-13T06:52:37.212Z,5
2016-08-13T06:53:37.236Z,5
2016-08-13T06:54:37.222Z,5
2016-08-13T06:55:37.220Z,5
2016-08-13T06:56:37.228Z,5
2016-08-13T06:57:37.257Z,5
2016-08-13T06:58:37.263Z,5
2016-08-13T06:59:37.249Z,5
2016-08-13T07:00:37.296Z,5
2016-08-13T07:01:37.278Z,5
2016-08-13T07:02:37.315Z,5
2016-08-13T07:03:37.301Z,5
2016-08-13T07:04:37.319Z,5
2016-08-13T07:05:37.304Z,5
2016-08-13T07:06:37.311Z,5
2016-08-13T07:07:37.328Z,5
2016-08-13T07:08:38.046Z,5
2016-08-13T07:09:37.348Z,5
2016-08-13T07:10:37.335Z,5
2016-08-13T07:11:37.371Z,5
2016-08-13T07:12:37.350Z,10
2016-08-13T07:13:37.379Z,10
2016-08-13T07:14:37.416Z,10
2016-08-13T07:15:37.366Z,10
2016-08-13T07:16:37.401Z,10
2016-08-13T07:17:37.419Z,10
2016-08-13T07:18:37.417Z,10
2016-08-13T07:19:37.440Z,10
2016-08-13T07:20:37.449Z,10
2016-08-13T07:21:37.453Z,10
2016-08-13T07:22:37.450Z,10
2016-08-13T07:23:37.447Z,10
2016-08-13T07:24:37.455Z,10
2016-08-13T07:25:37.488Z,10
2016-08-13T07:26:37.464Z,10
2016-08-13T07:27:37.510Z,10
2016-08-13T07:28:37.473Z,10
2016-08-13T07:29:37.555Z,10
2016-08-13T07:30:37.521Z,10
2016-08-13T07:31:37.519Z,10
2016-08-13T07:32:37.515Z,10
2016-08-13T07:33:37.545Z,10
2016-08-13T07:34:37.532Z,10
2016-08-13T07:35:37.520Z,10
2016-08-13T07:36:37.517Z,10
2016-08-13T07:37:37.574Z,10
2016-08-13T07:38:37.567Z,10
2016-08-13T07:39:37.560Z,10
2016-08-13T07:40:37.568Z,10
2016-08-13T07:41:37.566Z,10
2016-08-13T07:42:37.605Z,10
2016-08-13T07:43:37.613Z,10
2016-08-13T07:44:37.646Z,10
2016-08-13T07:45:37.593Z,10
2016-08-13T07:46:37.632Z,10
2016-08-13T07:47:37.612Z,10
2016-08-13T07:48:37.598Z,10
2016-08-13T07:49:37.689Z,10
2016-08-13T07:50:37.639Z,10
2016-08-13T07:51:37.660Z,10
2016-08-13T07:52:37.677Z,10
2016-08-13T07:53:37.675Z,10
2016-08-13T07:54:37.677Z,10
2016-08-13T07:55:37.721Z,10
2016-08-13T07:56:37.701Z,10
2016-08-13T07:57:37.723Z,10
2016-08-13T07:58:37.711Z,10
2016-08-13T07:59:37.727Z,10
2016-08-13T08:00:37.725Z,10
2016-08-13T08:01:37.773Z,10
2016-08-13T08:02:37.746Z,10
2016-08-13T08:03:37.747Z,10
2016-08-13T08:04:37.794Z,10
2016-08-13T08:05:37.808Z,10
2016-08-13T08:06:37.742Z,10
2016-08-13T08:07:37.788Z,10
2016-08-13T08:08:37.799Z,10
2016-08-13T08:09:37.775Z,10
2016-08-13T08:10:37.803Z,10
2016-08-13T08:11:37.805Z,10
2016-08-13T08:12:37.835Z,10
2016-08-13T08:13:37.812Z,10
2016-08-13T08:14:37.829Z,10
2016-08-13T08:15:37.862Z,10
2016-08-13T08:16:37.835Z,10
2016-08-13T08:17:37.852Z,15
2016-08-13T08:18:37.868Z,15
2016-08-13T08:19:37.886Z,15
2016-08-13T08:20:37.904Z,15
2016-08-13T08:21:37.884Z,15
2016-08-13T08:22:37.894Z,15
2016-08-13T08:23:37.900Z,15
2016-08-13T08:24:37.881Z,15
2016-08-13T08:25:37.880Z,15
2016-08-13T08:26:37.934Z,15
2016-08-13T08:27:37.920Z,15
2016-08-13T08:28:37.936Z,15
2016-08-13T08:29:37.995Z,15
2016-08-13T08:30:37.973Z,15
2016-08-13T08:31:37.981Z,15
2016-08-13T08:32:37.988Z,15
2016-08-13T08:33:37.990Z,15
2016-08-13T08:34:38.002Z,15
2016-08-13T08:35:37.976Z,15
2016-08-13T08:36:37.999Z,15
2016-08-13T08:37:38.016Z,15
2016-08-13T08:38:38.006Z,15
2016-08-13T08:39:38.040Z,15
2016-08-13T08:40:38.042Z,15
2016-08-13T08:41:38.052Z,15
2016-08-13T08:42:38.059Z,15
2016-08-13T08:43:38.074Z,15
2016-08-13T08:44:38.760Z,15
2016-08-13T08:45:38.094Z,15
2016-08-13T08:46:38.088Z,15
2016-08-13T08:47:38.069Z,15
2016-08-13T08:48:38.093Z,15
2016-08-13T08:49:38.808Z,15
2016-08-13T08:50:38.106Z,15
2016-08-13T08:51:38.126Z,15
2016-08-13T08:52:38.133Z,15
2016-08-13T08:53:38.123Z,15
2016-08-13T08:54:38.166Z,15
2016-08-13T08:55:38.148Z,15
2016-08-13T08:56:38.160Z,15
2016-08-13T08:57:38.211Z,15
2016-08-13T08:58:38.152Z,15
2016-08-13T08:59:38.197Z,15
2016-08-13T09:00:38.195Z,15
2016-08-13T09:01:38.200Z,15
2016-08-13T09:02:38.192Z,15
2016-08-13T09:03:38.236Z,15
2016-08-13T09:04:38.225Z,15
2016-08-13T09:05:38.251Z,15
2016-08-13T09:06:38.235Z,15
2016-08-13T09:07:38.232Z,15
2016-08-13T09:08:38.264Z,15
2016-08-13T09:09:38.275Z,15
2016-08-13T09:10:38.265Z,15
2016-08-13T09:11:38.279Z,15
2016-08-13T09:12:38.289Z,15
2016-08-13T09:13:38.313Z,15
2016-08-13T09:14:38.307Z,15
2016-08-13T09:15:38.304Z,15
2016-08-13T09:16:38.310Z,15
2016-08-13T09:17:38.364Z,15
2016-08-13T09:18:38.340Z,15
2016-08-13T09:19:38.328Z,15
2016-08-13T09:20:38.359Z,15
2016-08-13T09:21:38.352Z,15
2016-08-13T09:22:38.340Z,15
2016-08-13T09:23:38.386Z,15
2016-08-13T09:24:38.436Z,15
2016-08-13T09:25:39.051Z,15
2016-08-13T09:26:38.373Z,15
2016-08-13T09:27:38.705Z,15
2016-08-13T09:28:38.380Z,15
2016-08-13T09:29:38.563Z,20
2016-08-13T09:30:38.443Z,20
2016-08-13T09:31:38.416Z,20
2016-08-13T09:32:38.457Z,20
2016-08-13T09:33:38.422Z,20
2016-08-13T09:34:38.468Z,20
2016-08-13T09:35:38.461Z,20
2016-08-13T09:36:38.481Z,20
2016-08-13T09:37:38.508Z,20
2016-08-13T09:38:38.491Z,20
2016-08-13T09:39:38.491Z,20
2016-08-13T09:40:38.492Z,20
2016-08-13T09:41:38.477Z,20
2016-08-13T09:42:38.535Z,20
2016-08-13T09:43:38.530Z,20
2016-08-13T09:44:38.518Z,20
2016-08-13T09:45:38.545Z,20
2016-08-13T09:46:38.550Z,20
2016-08-13T09:47:38.562Z,20
2016-08-13T09:48:38.571Z,20
2016-08-13T09:49:38.575Z,20
2016-08-13T09:50:38.573Z,20
2016-08-13T09:51:38.607Z,20
2016-08-13T09:52:38.620Z,20
2016-08-13T09:53:38.642Z,20
2016-08-13T09:54:38.658Z,20
2016-08-13T09:55:38.608Z,20
2016-08-13T09:56:38.642Z,20
2016-08-13T09:57:38.638Z,20
2016-08-13T09:58:38.679Z,20
2016-08-13T09:59:38.652Z,20
2016-08-13T10:00:38.634Z,20
2016-08-13T10:01:38.688Z,20
2016-08-13T10:02:39.409Z,20
2016-08-13T10:03:38.694Z,20
2016-08-13T10:04:38.705Z,20
2016-08-13T10:05:38.714Z,20
2016-08-13T10:06:38.722Z,20
2016-08-13T10:07:38.739Z,20
2016-08-13T10:08:38.706Z,20
2016-08-13T10:09:38.751Z,20
2016-08-13T10:10:38.770Z,20
2016-08-13T10:11:38.767Z,20
2016-08-13T10:12:38.769Z,20
2016-08-13T10:13:38.827Z,20
2016-08-13T10:14:38.792Z,20
2016-08-13T10:15:38.790Z,20
2016-08-13T10:16:38.792Z,20
2016-08-13T10:17:38.823Z,20
2016-08-13T10:18:38.831Z,20
2016-08-13T10:19:38.844Z,20
2016-08-13T10:20:38.866Z,20
2016-08-13T10:21:38.845Z,20
2016-08-13T10:22:38.874Z,20
2016-08-13T10:23:38.837Z,20
2016-08-13T10:24:38.874Z,20
2016-08-13T10:25:38.897Z,20
2016-08-13T10:26:38.863Z,20
2016-08-13T10:27:39.601Z,20
2016-08-13T10:28:38.917Z,20
2016-08-13T10:29:38.944Z,20
2016-08-13T10:30:38.910Z,25
2016-08-13T10:31:38.943Z,25
2016-08-13T10:32:38.953Z,25
2016-08-13T10:33:39.660Z,25
2016-08-13T10:34:38.961Z,20
2016-08-13T10:35:39.690Z,20
2016-08-13T10:36:38.964Z,20
2016-08-13T10:37:38.977Z,20
2016-08-13T10:38:38.984Z,20
2016-08-13T10:39:38.999Z,20
2016-08-13T10:40:39.017Z,20
2016-08-13T10:41:39.014Z,20
2016-08-13T10:42:39.032Z,20
2016-08-13T10:43:39.024Z,20
2016-08-13T10:44:39.045Z,20
2016-08-13T10:45:39.032Z,20
2016-08-13T10:46:39.069Z,20
2016-08-13T10:47:39.060Z,20
2016-08-13T10:48:39.075Z,25
2016-08-13T10:49:39.097Z,25
2016-08-13T10:50:39.054Z,25
2016-08-13T10:51:40.486Z,25
2016-08-13T10:52:39.100Z,25
2016-08-13T10:53:39.188Z,25
2016-08-13T10:54:39.142Z,25
2016-08-13T10:55:39.139Z,25
2016-08-13T10:56:39.130Z,25
2016-08-13T10:57:39.155Z,25
2016-08-13T10:58:39.160Z,25
2016-08-13T10:59:39.160Z,25
2016-08-13T11:00:39.167Z,25
2016-08-13T11:01:39.176Z,25
2016-08-13T11:02:39.171Z,25
2016-08-13T11:03:39.222Z,25
2016-08-13T11:04:39.889Z,25
2016-08-13T11:05:39.221Z,25
2016-08-13T11:06:39.209Z,25
2016-08-13T11:07:39.924Z,25
2016-08-13T11:08:39.218Z,25
2016-08-13T11:09:39.265Z,15
2016-08-13T11:10:39.278Z,30
2016-08-13T11:11:39.266Z,30
2016-08-13T11:12:39.296Z,25
2016-08-13T11:13:39.305Z,25
2016-08-13T11:14:39.268Z,25
2016-08-13T11:15:39.295Z,25
2016-08-13T11:16:39.316Z,25
2016-08-13T11:17:39.315Z,25
2016-08-13T11:18:39.294Z,25
2016-08-13T11:19:39.336Z,25
2016-08-13T11:20:39.341Z,25
2016-08-13T11:21:39.370Z,25
2016-08-13T11:22:39.340Z,25
2016-08-13T11:23:39.372Z,25
2016-08-13T11:24:39.378Z,25
2016-08-13T11:25:39.383Z,25
2016-08-13T11:26:40.079Z,25
2016-08-13T11:27:39.395Z,30
2016-08-13T11:28:39.428Z,30
2016-08-13T11:29:39.508Z,30
2016-08-13T11:30:39.437Z,30
2016-08-13T11:31:39.427Z,35
2016-08-13T11:32:39.439Z,35
2016-08-13T11:33:39.463Z,35
2016-08-13T11:34:39.443Z,35
2016-08-13T11:35:39.467Z,35
2016-08-13T11:36:39.498Z,30
2016-08-13T11:37:39.508Z,30
2016-08-13T11:38:39.518Z,35
2016-08-13T11:39:39.499Z,30
2016-08-13T11:40:39.530Z,30
2016-08-13T11:41:39.535Z,30
2016-08-13T11:42:39.526Z,30
2016-08-13T11:43:40.236Z,30
2016-08-13T11:44:39.521Z,30
2016-08-13T11:45:39.593Z,30
2016-08-13T11:46:39.591Z,25
2016-08-13T11:47:39.572Z,25
2016-08-13T11:48:39.592Z,25
2016-08-13T11:49:39.600Z,25
2016-08-13T11:50:39.618Z,25
2016-08-13T11:51:39.628Z,25
2016-08-13T11:52:39.649Z,25
2016-08-13T11:53:39.680Z,30
2016-08-13T11:54:39.622Z,30
2016-08-13T11:55:39.671Z,30
2016-08-13T11:56:39.646Z,30
2016-08-13T11:57:39.675Z,30
2016-08-13T11:58:39.669Z,25
2016-08-13T11:59:39.687Z,25
2016-08-13T12:00:39.686Z,25
2016-08-13T12:01:39.709Z,25
2016-08-13T12:02:39.710Z,25
2016-08-13T12:03:39.720Z,25
2016-08-13T12:04:39.771Z,25
2016-08-13T12:05:39.720Z,25
2016-08-13T12:06:39.773Z,25
2016-08-13T12:07:39.770Z,25
2016-08-13T12:08:39.759Z,25
2016-08-13T12:09:39.771Z,25
2016-08-13T12:10:39.799Z,25
2016-08-13T12:11:39.796Z,25
2016-08-13T12:12:39.920Z,25
2016-08-13T12:13:39.799Z,25
2016-08-13T12:14:39.833Z,25
2016-08-13T12:15:39.833Z,25
2016-08-13T12:16:39.839Z,25
2016-08-13T12:17:39.862Z,25
2016-08-13T12:18:39.849Z,25
2016-08-13T12:19:39.870Z,25
2016-08-13T12:20:39.888Z,25
2016-08-13T12:21:39.870Z,25
2016-08-13T12:22:39.884Z,25
2016-08-13T12:23:39.922Z,25
2016-08-13T12:24:39.911Z,25
2016-08-13T12:25:39.914Z,25
2016-08-13T12:26:39.979Z,25
2016-08-13T12:27:39.919Z,25
2016-08-13T12:28:39.966Z,25
2016-08-13T12:29:40.005Z,25
2016-08-13T12:30:39.986Z,25
2016-08-13T12:31:39.977Z,25
2016-08-13T12:32:39.975Z,25
2016-08-13T12:33:39.992Z,25
2016-08-13T12:34:39.992Z,25
2016-08-13T12:35:40.001Z,25
2016-08-13T12:36:40.021Z,25
2016-08-13T12:37:40.047Z,25
2016-08-13T12:38:40.037Z,25
2016-08-13T12:39:40.043Z,25
2016-08-13T12:40:40.097Z,25
2016-08-13T12:41:40.082Z,25
2016-08-13T12:42:40.093Z,25
2016-08-13T12:43:40.087Z,25
2016-08-13T12:44:40.086Z,25
2016-08-13T12:45:40.106Z,25
2016-08-13T12:46:40.132Z,20
2016-08-13T12:47:40.113Z,20
2016-08-13T12:48:40.122Z,20
2016-08-13T12:49:40.131Z,25
2016-08-13T12:50:40.171Z,20
2016-08-13T12:51:40.154Z,25
2016-08-13T12:52:40.150Z,25
2016-08-13T12:53:40.169Z,25
2016-08-13T12:54:40.191Z,25
2016-08-13T12:55:40.190Z,25
2016-08-13T12:56:40.233Z,20
2016-08-13T12:57:40.209Z,20
2016-08-13T12:58:40.215Z,20
2016-08-13T12:59:40.248Z,20
2016-08-13T13:00:40.239Z,20
2016-08-13T13:01:40.267Z,20
2016-08-13T13:02:40.258Z,20
2016-08-13T13:03:40.255Z,20
2016-08-13T13:04:40.265Z,20
2016-08-13T13:05:40.303Z,20
2016-08-13T13:06:40.296Z,20
2016-08-13T13:07:40.288Z,20
2016-08-13T13:08:40.322Z,20
2016-08-13T13:09:40.319Z,20
2016-08-13T13:10:40.359Z,20
2016-08-13T13:11:40.354Z,20
2016-08-13T13:12:40.353Z,20
2016-08-13T13:13:40.360Z,20
2016-08-13T13:14:40.380Z,20
2016-08-13T13:15:40.403Z,20
2016-08-13T13:16:40.404Z,20
2016-08-13T13:17:40.408Z,20
2016-08-13T13:18:40.395Z,20
2016-08-13T13:19:40.425Z,20
2016-08-13T13:20:40.416Z,20
2016-08-13T13:21:40.446Z,20
2016-08-13T13:22:40.443Z,20
2016-08-13T13:23:40.459Z,20
2016-08-13T13:24:40.450Z,20
2016-08-13T13:25:40.490Z,20
2016-08-13T13:26:41.173Z,20
2016-08-13T13:27:40.510Z,20
2016-08-13T13:28:40.496Z,20
2016-08-13T13:29:40.609Z,20
2016-08-13T13:30:40.540Z,20
2016-08-13T13:31:40.514Z,20
2016-08-13T13:32:40.560Z,20
2016-08-13T13:33:40.540Z,25
2016-08-13T13:34:40.566Z,25
2016-08-13T13:35:40.559Z,25
2016-08-13T13:36:40.575Z,20
2016-08-13T13:37:40.556Z,20
2016-08-13T13:38:40.616Z,20
2016-08-13T13:39:40.591Z,20
2016-08-13T13:40:40.599Z,20
2016-08-13T13:41:41.300Z,20
2016-08-13T13:42:40.635Z,20
2016-08-13T13:43:40.646Z,20
2016-08-13T13:44:40.632Z,20
2016-08-13T13:45:40.648Z,20
2016-08-13T13:46:40.655Z,20
2016-08-13T13:47:40.712Z,20
2016-08-13T13:48:40.697Z,20
2016-08-13T13:49:40.671Z,20
2016-08-13T13:50:40.714Z,20
2016-08-13T13:51:40.710Z,20
2016-08-13T13:52:40.698Z,20
2016-08-13T13:53:40.709Z,20
2016-08-13T13:54:40.749Z,20
2016-08-13T13:55:40.776Z,20
2016-08-13T13:56:40.722Z,20
2016-08-13T13:57:40.755Z,20
2016-08-13T13:58:40.779Z,20
2016-08-13T13:59:40.809Z,20
2016-08-13T14:00:40.787Z,20
2016-08-13T14:01:40.815Z,20
2016-08-13T14:02:40.825Z,20
2016-08-13T14:03:40.817Z,20
2016-08-13T14:04:40.829Z,20
2016-08-13T14:05:41.583Z,20
2016-08-13T14:06:40.833Z,20
2016-08-13T14:07:40.849Z,20
2016-08-13T14:08:40.863Z,20
2016-08-13T14:09:40.864Z,20
2016-08-13T14:10:40.887Z,10
2016-08-13T14:11:40.891Z,15
2016-08-13T14:12:40.908Z,20
2016-08-13T14:13:41.618Z,20
2016-08-13T14:14:40.908Z,20
2016-08-13T14:15:40.924Z,20
2016-08-13T14:16:41.682Z,20
2016-08-13T14:17:40.949Z,20
2016-08-13T14:18:41.653Z,20
2016-08-13T14:19:40.963Z,20
2016-08-13T14:20:40.983Z,20
2016-08-13T14:21:40.971Z,20
2016-08-13T14:22:40.992Z,20
2016-08-13T14:23:41.022Z,15
2016-08-13T14:24:41.018Z,15
2016-08-13T14:25:40.996Z,15
2016-08-13T14:26:41.044Z,15
2016-08-13T14:27:41.068Z,15
2016-08-13T14:28:41.060Z,15
2016-08-13T14:29:41.062Z,15
2016-08-13T14:30:41.230Z,15